Time;durP1;ratioP1;P1;durP2;ratioP2;P2;SDS_P1;SDS_P2;PMS_P1;PMS_P2;Temp;Humidity;BMP_temperature;BMP_pressure;BME280_temperature;BME280_humidity;BME280_pressure;Samples;Min_cycle;Max_cycle;Signal;HPM_P1;HPM_P2
2022/01/07 00:02:46;;;;;;;22.03;13.00;;;;;;;4.23;53.78;98259.44;8479262;28;20229;-71
2022/01/07 00:06:51;;;;;;;18.33;12.47;;;;;;;4.29;53.24;98263.63;8480397;28;20236;-71
2022/01/07 00:10:54;;;;;;;20.07;12.27;;;;;;;4.34;53.00;98263.56;8480178;28;20245;-71
2022/01/07 00:14:57;;;;;;;19.47;12.27;;;;;;;4.23;52.68;98271.41;8480049;28;20233;-71
2022/01/07 00:19:00;;;;;;;19.43;12.63;;;;;;;4.04;53.61;98260.56;8480414;28;20229;-71
2022/01/07 00:23:05;;;;;;;21.57;11.90;;;;;;;3.76;54.14;98244.69;8480635;28;20225;-71
2022/01/07 00:27:08;;;;;;;20.17;11.93;;;;;;;3.72;54.90;98239.59;8480163;28;20237;-71
2022/01/07 00:31:26;;;;;;;19.47;12.13;;;;;;;4.19;53.55;98234.72;8479918;28;20229;-71
2022/01/07 00:35:29;;;;;;;18.27;12.10;;;;;;;4.24;53.16;98237.22;8480105;28;20225;-71
2022/01/07 00:39:34;;;;;;;19.90;12.40;;;;;;;4.18;53.68;98238.13;8479675;28;20221;-71
2022/01/07 00:43:37;;;;;;;21.13;13.13;;;;;;;3.78;54.84;98223.31;8479583;28;20233;-70
2022/01/07 00:47:40;;;;;;;24.47;14.43;;;;;;;3.89;53.75;98216.34;8479509;28;20240;-70
2022/01/07 00:51:43;;;;;;;20.60;13.63;;;;;;;3.66;54.53;98210.69;8484036;28;20230;-71
2022/01/07 00:55:48;;;;;;;22.00;13.13;;;;;;;3.88;54.41;98211.22;8485621;28;20229;-71
2022/01/07 00:59:50;;;;;;;19.67;13.10;;;;;;;3.78;54.01;98212.22;8485582;28;20238;-70
2022/01/07 01:03:53;;;;;;;20.37;13.20;;;;;;;3.83;54.48;98213.03;8485374;28;20239;-70
2022/01/07 01:07:56;;;;;;;19.93;13.00;;;;;;;4.18;53.22;98220.19;8485337;28;20234;-70
2022/01/07 01:12:01;;;;;;;21.17;13.43;;;;;;;3.85;54.08;98224.94;8485347;28;20221;-70
2022/01/07 01:16:04;;;;;;;20.80;13.63;;;;;;;3.95;53.78;98229.94;8485044;28;20225;-68
2022/01/07 01:20:10;;;;;;;24.70;14.23;;;;;;;4.09;53.35;98220.31;8485110;28;20240;-68
2022/01/07 01:24:13;;;;;;;21.43;14.37;;;;;;;3.96;53.76;98213.69;8484955;28;20240;-68
2022/01/07 01:28:18;;;;;;;24.80;15.10;;;;;;;3.69;55.03;98208.94;8484798;28;20238;-70
2022/01/07 01:32:21;;;;;;;19.77;13.97;;;;;;;3.49;55.38;98204.03;8484790;28;20555;-70
2022/01/07 01:36:24;;;;;;;22.13;13.57;;;;;;;3.47;55.92;98202.38;8484629;28;20224;-70
2022/01/07 01:40:27;;;;;;;24.30;13.70;;;;;;;3.32;55.92;98204.22;8484754;28;20229;-70
2022/01/07 01:44:31;;;;;;;23.30;13.80;;;;;;;3.35;55.33;98202.50;8485733;28;20548;-70
2022/01/07 01:48:34;;;;;;;19.73;12.67;;;;;;;3.57;55.38;98197.97;8486400;28;20533;-70
2022/01/07 01:52:37;;;;;;;22.23;13.27;;;;;;;3.48;55.02;98186.13;8485727;28;20197;-70
2022/01/07 01:56:41;;;;;;;24.57;13.33;;;;;;;3.43;54.82;98188.75;8484393;28;20229;-71
2022/01/07 02:00:45;;;;;;;18.13;12.03;;;;;;;3.57;54.55;98188.56;8483487;28;20230;-71
2022/01/07 02:04:48;;;;;;;19.67;13.00;;;;;;;3.59;54.42;98180.88;8483416;28;20233;-70
2022/01/07 02:08:52;;;;;;;18.30;12.13;;;;;;;3.38;55.44;98176.88;8483749;28;20237;-70
2022/01/07 02:12:55;;;;;;;19.90;11.97;;;;;;;3.79;54.31;98178.03;8483879;28;20232;-70
2022/01/07 02:17:06;;;;;;;18.47;11.50;;;;;;;3.83;53.59;98174.59;8483290;28;20225;-71
2022/01/07 02:21:11;;;;;;;17.50;11.50;;;;;;;3.83;53.30;98170.31;8483148;28;20546;-70
2022/01/07 02:25:14;;;;;;;16.53;11.27;;;;;;;3.74;53.34;98160.19;8483083;28;20232;-71
2022/01/07 02:29:17;;;;;;;17.90;11.40;;;;;;;3.80;53.47;98165.22;8482719;28;20252;-71
2022/01/07 02:33:20;;;;;;;20.57;11.97;;;;;;;3.68;53.87;98161.09;8482553;28;20248;-71
2022/01/07 02:37:25;;;;;;;22.00;12.70;;;;;;;3.44;54.80;98154.59;8482627;28;20228;-70
2022/01/07 02:41:28;;;;;;;21.83;13.57;;;;;;;2.88;56.18;98153.56;8482539;28;20535;-71
2022/01/07 02:45:31;;;;;;;15.13;10.97;;;;;;;3.38;54.71;98154.66;8482115;28;20232;-72
2022/01/07 02:49:34;;;;;;;17.60;10.93;;;;;;;3.30;54.89;98143.69;8482032;28;20586;-71
2022/01/07 02:53:40;;;;;;;17.90;10.90;;;;;;;3.02;55.60;98161.06;8482112;28;20236;-71
2022/01/07 02:57:43;;;;;;;21.60;12.07;;;;;;;3.04;55.45;98155.06;8482308;28;20230;-71
2022/01/07 03:01:46;;;;;;;18.97;11.27;;;;;;;3.07;55.92;98147.38;8481970;28;20567;-71
2022/01/07 03:05:49;;;;;;;18.27;11.53;;;;;;;3.36;55.04;98142.75;8481831;28;20229;-71
2022/01/07 03:09:53;;;;;;;16.60;10.80;;;;;;;3.43;54.33;98139.28;8481701;28;20237;-71
2022/01/07 03:13:56;;;;;;;23.43;11.63;;;;;;;3.03;55.60;98132.91;8481066;28;20229;-71
2022/01/07 03:17:59;;;;;;;21.83;11.10;;;;;;;3.20;54.97;98126.72;8481789;28;20231;-71
2022/01/07 03:22:02;;;;;;;16.77;10.80;;;;;;;3.43;54.87;98129.03;8481492;28;20240;-71
2022/01/07 03:26:07;;;;;;;20.03;10.57;;;;;;;2.98;55.51;98121.03;8481368;28;20225;-71
2022/01/07 03:30:13;;;;;;;16.10;10.80;;;;;;;2.71;56.25;98117.91;8481206;28;20241;-71
2022/01/07 03:34:16;;;;;;;22.43;11.43;;;;;;;2.58;57.64;98108.69;8481450;28;20225;-71
2022/01/07 03:38:19;;;;;;;21.27;10.80;;;;;;;2.96;56.27;98112.53;8481225;28;20225;-71
2022/01/07 03:42:24;;;;;;;20.33;11.43;;;;;;;2.64;56.72;98109.44;8481189;28;20548;-71
2022/01/07 03:46:27;;;;;;;18.10;11.20;;;;;;;2.58;57.49;98103.56;8481631;28;20229;-71
2022/01/07 03:50:30;;;;;;;20.03;10.67;;;;;;;2.68;56.72;98103.44;8480799;28;20233;-71
2022/01/07 03:54:33;;;;;;;15.73;10.13;;;;;;;2.98;56.27;98095.47;8480814;28;20231;-71
2022/01/07 03:58:38;;;;;;;16.23;10.07;;;;;;;2.45;58.35;98095.16;8480705;28;20237;-71
2022/01/07 04:02:41;;;;;;;19.30;10.80;;;;;;;2.23;59.16;98090.25;8480542;28;20229;-71
2022/01/07 04:06:44;;;;;;;18.80;11.10;;;;;;;2.72;57.45;98088.91;8480524;28;20241;-71
2022/01/07 04:10:47;;;;;;;20.40;11.40;;;;;;;2.23;59.77;98099.63;8480296;28;20234;-71
2022/01/07 04:15:02;;;;;;;15.60;10.17;;;;;;;2.57;57.75;98097.63;8480620;28;20407;-71
2022/01/07 04:19:05;;;;;;;18.93;10.67;;;;;;;2.39;57.56;98090.13;8480407;28;20225;-71
2022/01/07 04:23:09;;;;;;;16.20;10.43;;;;;;;2.88;56.77;98090.44;8480592;28;20256;-71
2022/01/07 04:27:16;;;;;;;17.37;10.80;;;;;;;2.84;56.68;98085.38;8486947;28;20328;-71
2022/01/07 04:31:21;;;;;;;19.83;10.47;;;;;;;2.98;55.70;98091.16;8486700;28;20245;-70
2022/01/07 04:35:25;;;;;;;20.23;11.00;;;;;;;3.00;55.77;98093.72;8486830;28;20222;-70
2022/01/07 04:39:28;;;;;;;18.03;10.53;;;;;;;2.87;56.51;98085.34;8486642;28;20399;-71
2022/01/07 04:43:31;;;;;;;18.70;10.00;;;;;;;2.94;56.22;98095.47;8486014;28;20224;-72
2022/01/07 04:47:36;;;;;;;16.33;9.73;;;;;;;2.79;56.23;98110.16;8486113;28;20233;-71
2022/01/07 04:51:39;;;;;;;17.20;10.10;;;;;;;2.91;56.09;98098.09;8486127;28;20238;-71
2022/01/07 04:55:44;;;;;;;16.97;10.27;;;;;;;2.79;56.92;98094.81;8486308;28;20286;-71
2022/01/07 04:59:47;;;;;;;15.33;8.97;;;;;;;2.94;56.16;98097.19;8485965;28;20239;-71
2022/01/07 05:03:51;;;;;;;17.77;10.13;;;;;;;2.78;56.40;98096.53;8485358;28;20242;-71
2022/01/07 05:07:54;;;;;;;17.37;10.27;;;;;;;2.61;56.92;98085.63;8467374;28;20233;-71
2022/01/07 05:11:57;;;;;;;15.80;9.23;;;;;;;2.99;55.73;98069.84;8467771;28;20225;-71
2022/01/07 05:16:00;;;;;;;20.90;10.17;;;;;;;3.15;55.90;98074.78;8459223;28;20420;-71
2022/01/07 05:20:05;;;;;;;14.87;8.83;;;;;;;3.20;55.38;98066.19;8451089;28;20229;-71
2022/01/07 05:24:09;;;;;;;20.47;8.70;;;;;;;3.28;55.29;98063.50;8473025;28;20222;-70
2022/01/07 05:28:12;;;;;;;17.27;9.27;;;;;;;3.18;55.76;98069.59;8484952;28;20230;-70
2022/01/07 05:32:14;;;;;;;18.43;9.23;;;;;;;3.07;56.01;98062.91;8484460;28;20240;-70
2022/01/07 05:36:19;;;;;;;17.83;8.90;;;;;;;3.28;55.90;98064.34;8483698;28;20226;-71
2022/01/07 05:40:22;;;;;;;16.23;9.43;;;;;;;3.23;55.56;98066.13;8484361;28;20229;-71
2022/01/07 05:44:25;;;;;;;16.40;9.23;;;;;;;3.08;55.98;98067.16;8484325;28;20236;-71
2022/01/07 05:48:28;;;;;;;15.53;8.47;;;;;;;3.01;55.92;98063.00;8483985;28;20236;-71
2022/01/07 05:52:33;;;;;;;14.10;8.50;;;;;;;3.10;56.73;98056.91;8483691;28;20225;-72
2022/01/07 05:56:36;;;;;;;16.10;9.30;;;;;;;3.03;56.89;98057.88;8484074;28;20423;-71
2022/01/07 06:00:39;;;;;;;13.10;8.40;;;;;;;3.36;56.46;98064.25;8483615;28;20240;-71
2022/01/07 06:04:42;;;;;;;16.73;8.97;;;;;;;3.30;56.26;98067.72;8483720;28;20310;-70
2022/01/07 06:08:46;;;;;;;15.60;8.87;;;;;;;3.26;55.90;98071.22;8483752;28;20230;-71
2022/01/07 06:12:49;;;;;;;18.03;8.90;;;;;;;3.00;57.04;98078.38;8483494;28;20233;-71
2022/01/07 06:16:52;;;;;;;17.77;9.63;;;;;;;3.02;56.94;98074.06;8483403;28;20228;-71
2022/01/07 06:20:55;;;;;;;16.10;9.10;;;;;;;2.93;57.78;98067.34;8483069;28;20426;-71
2022/01/07 06:24:59;;;;;;;12.70;9.60;;;;;;;2.65;58.28;98057.47;8483141;28;20532;-70
2022/01/07 06:29:03;;;;;;;14.83;9.70;;;;;;;2.60;58.94;98059.22;8482941;28;20225;-70
2022/01/07 06:33:07;;;;;;;14.37;10.87;;;;;;;2.37;59.65;98056.91;8482459;28;20237;-70
2022/01/07 06:37:11;;;;;;;15.63;10.57;;;;;;;2.82;58.60;98062.38;8482761;28;20225;-70
2022/01/07 06:41:15;;;;;;;14.90;11.70;;;;;;;2.74;59.12;98067.59;8482554;28;20235;-70
2022/01/07 06:45:18;;;;;;;12.40;11.10;;;;;;;3.13;58.00;98075.63;8482558;28;20248;-70
2022/01/07 06:49:21;;;;;;;15.50;12.40;;;;;;;3.08;58.05;98068.88;8481419;28;20225;-70
2022/01/07 06:53:24;;;;;;;15.60;12.43;;;;;;;2.81;59.50;98075.19;8481921;28;20254;-70
2022/01/07 06:57:33;;;;;;;16.00;12.80;;;;;;;3.28;57.86;98084.81;8481765;28;20228;-71
2022/01/07 07:01:36;;;;;;;16.90;13.57;;;;;;;3.17;58.56;98076.44;8481750;28;20240;-70
2022/01/07 07:05:39;;;;;;;17.47;14.80;;;;;;;3.32;57.89;98083.91;8481675;28;20237;-70
2022/01/07 07:09:43;;;;;;;16.63;14.50;;;;;;;3.43;58.17;98090.63;8481978;28;20543;-71
2022/01/07 07:13:47;;;;;;;16.43;14.60;;;;;;;3.54;57.68;98091.28;8481740;28;20234;-71
2022/01/07 07:17:50;;;;;;;16.97;14.40;;;;;;;3.74;57.46;98085.06;8481573;28;20428;-71
2022/01/07 07:21:53;;;;;;;16.63;14.50;;;;;;;3.77;57.60;98079.88;8481317;28;20402;-74
2022/01/07 07:25:56;;;;;;;17.43;14.83;;;;;;;3.75;57.93;98081.59;8481623;28;20229;-70
2022/01/07 07:30:00;;;;;;;18.00;15.43;;;;;;;3.67;58.37;98076.59;8480845;28;20233;-70
2022/01/07 07:34:44;;;;;;;17.47;15.17;;;;;;;3.65;58.10;98070.66;8481041;28;20233;-70
2022/01/07 07:38:47;;;;;;;17.40;15.60;;;;;;;3.50;58.77;98064.03;8480648;28;20226;-70
2022/01/07 07:42:50;;;;;;;17.97;15.57;;;;;;;3.40;59.33;98071.00;8452014;28;20234;-70
2022/01/07 07:46:54;;;;;;;17.57;15.73;;;;;;;3.57;58.34;98072.50;8447163;28;20231;-70
2022/01/07 07:50:57;;;;;;;17.30;14.57;;;;;;;3.80;58.02;98067.03;8447061;28;20229;-70
2022/01/07 07:55:00;;;;;;;20.03;15.93;;;;;;;3.50;57.98;98064.03;8446798;28;20234;-70
2022/01/07 07:59:03;;;;;;;16.83;15.13;;;;;;;3.88;57.47;98067.75;8448176;28;20426;-70
2022/01/07 08:03:08;;;;;;;17.93;16.03;;;;;;;3.95;56.94;98056.53;8477561;28;20554;-70
2022/01/07 08:07:16;;;;;;;18.03;15.00;;;;;;;4.47;55.99;98057.34;8488041;28;20243;-70
2022/01/07 08:11:19;;;;;;;17.97;15.70;;;;;;;4.21;56.80;98056.09;8487500;28;20396;-70
2022/01/07 08:19:44;;;;;;;15.87;13.03;;;;;;;4.56;55.52;98053.78;8487195;28;20255;-70
2022/01/07 08:23:47;;;;;;;19.20;14.43;;;;;;;4.56;54.91;98039.22;8487177;28;20233;-70
2022/01/07 08:27:51;;;;;;;14.37;12.83;;;;;;;4.59;55.14;98031.47;8486467;28;20233;-70
2022/01/07 08:36:16;;;;;;;15.70;13.57;;;;;;;4.17;55.66;98039.09;8486612;28;20234;-70
2022/01/07 08:40:19;;;;;;;13.87;12.13;;;;;;;4.76;60.93;98026.03;8486190;28;20231;-69
2022/01/07 08:44:24;;;;;;;15.47;11.90;;;;;;;6.87;65.64;98023.50;8486047;28;20428;-69
2022/01/07 08:48:28;;;;;;;15.03;12.53;;;;;;;6.80;50.71;98019.44;8485804;28;20230;-69
2022/01/07 08:52:32;;;;;;;14.43;12.93;;;;;;;5.85;51.47;98008.16;8485457;28;20411;-71
2022/01/07 08:56:35;;;;;;;14.23;12.50;;;;;;;5.71;52.62;98011.94;8485838;28;20536;-70
2022/01/07 09:00:39;;;;;;;14.50;12.20;;;;;;;5.44;52.87;98006.56;8485584;28;20289;-70
2022/01/07 09:04:42;;;;;;;13.87;12.37;;;;;;;5.46;52.47;98008.25;8472108;28;20236;-71
2022/01/07 09:08:46;;;;;;;13.83;12.30;;;;;;;5.20;52.53;98001.13;8469922;28;20237;-69
2022/01/07 09:12:49;;;;;;;14.17;12.67;;;;;;;5.32;52.92;98004.31;8455642;28;20236;-70
2022/01/07 09:16:52;;;;;;;15.83;13.10;;;;;;;5.04;53.54;97998.03;8456757;28;20285;-70
2022/01/07 09:20:55;;;;;;;14.10;12.50;;;;;;;5.09;53.50;98003.91;8471680;28;20234;-70
2022/01/07 09:24:59;;;;;;;13.47;12.03;;;;;;;4.60;54.91;97994.66;8471277;28;20222;-69
2022/01/07 09:29:02;;;;;;;16.50;13.47;;;;;;;4.79;54.17;98005.41;8461680;28;20230;-69
2022/01/07 09:33:05;;;;;;;14.43;12.53;;;;;;;5.02;53.66;97997.22;8458543;28;20235;-69
2022/01/07 09:37:08;;;;;;;16.73;12.47;;;;;;;4.75;54.83;98002.94;8450627;28;20226;-70
2022/01/07 09:41:13;;;;;;;17.13;14.53;;;;;;;5.17;53.82;97988.34;8453341;28;20225;-70
2022/01/07 09:45:16;;;;;;;15.70;12.57;;;;;;;5.01;54.37;97984.44;8466590;28;20228;-69
2022/01/07 09:49:20;;;;;;;18.13;13.23;;;;;;;4.77;55.08;97988.38;8466583;28;20228;-69
2022/01/07 09:53:23;;;;;;;14.57;12.67;;;;;;;5.08;54.50;97971.44;8466481;28;20429;-70
2022/01/07 09:57:27;;;;;;;13.80;11.80;;;;;;;4.97;54.71;97970.84;8466336;28;20238;-69
2022/01/07 10:01:30;;;;;;;16.57;13.13;;;;;;;4.79;54.92;97956.66;8468922;28;20230;-70
2022/01/07 10:05:41;;;;;;;15.87;12.77;;;;;;;4.92;55.25;97954.69;8465297;28;20394;-69
2022/01/07 10:10:00;;;;;;;21.13;12.37;;;;;;;4.71;55.07;97948.28;8480550;28;20259;-69
2022/01/07 10:14:18;;;;;;;14.67;12.03;;;;;;;5.03;54.91;97944.19;8483014;28;20229;-69
2022/01/07 10:18:22;;;;;;;17.43;12.93;;;;;;;4.66;54.92;97944.97;8483286;28;20247;-69
2022/01/07 10:22:24;;;;;;;15.70;12.33;;;;;;;4.65;55.30;97940.72;8482799;28;20229;-68
2022/01/07 10:26:29;;;;;;;17.10;13.03;;;;;;;4.72;55.41;97938.88;8482691;28;20222;-69
2022/01/07 10:30:39;;;;;;;15.27;12.53;;;;;;;5.01;54.90;97935.69;8482274;28;20232;-68
2022/01/07 10:35:01;;;;;;;15.30;12.50;;;;;;;5.01;54.52;97933.94;8482516;28;20233;-68
2022/01/07 10:39:06;;;;;;;16.30;13.07;;;;;;;5.03;53.73;97923.66;8481926;28;20229;-70
2022/01/07 10:43:14;;;;;;;15.33;12.20;;;;;;;4.95;54.44;97920.41;8470933;28;20226;-68
2022/01/07 10:47:24;;;;;;;14.93;12.47;;;;;;;5.29;54.02;97912.75;8465177;28;20234;-68
2022/01/07 10:51:29;;;;;;;14.43;12.07;;;;;;;5.40;53.78;97903.06;8464046;28;20242;-69
2022/01/07 10:55:32;;;;;;;19.97;13.50;;;;;;;4.56;55.11;97895.59;8476513;28;20280;-67
2022/01/07 10:59:35;;;;;;;16.37;12.27;;;;;;;5.02;54.76;97896.28;8448454;28;20233;-67
2022/01/07 11:03:40;;;;;;;18.70;14.40;;;;;;;5.34;54.22;97885.25;8476983;28;20555;-67
2022/01/07 11:07:44;;;;;;;18.43;13.30;;;;;;;5.22;54.47;97891.53;8481855;28;20405;-68
2022/01/07 11:11:50;;;;;;;20.43;14.10;;;;;;;5.27;54.19;97883.72;8482054;28;20271;-68
2022/01/07 11:15:53;;;;;;;19.20;13.77;;;;;;;5.03;54.63;97882.59;8481083;28;20524;-69
2022/01/07 11:20:01;;;;;;;18.90;13.47;;;;;;;5.09;55.20;97874.72;8481420;28;20236;-68
2022/01/07 11:24:32;;;;;;;16.13;13.73;;;;;;;5.40;53.87;97876.56;8481452;28;20233;-68
2022/01/07 11:28:36;;;;;;;14.50;11.10;;;;;;;4.62;55.15;97879.22;8481050;28;20225;-68
2022/01/07 11:32:40;;;;;;;17.20;12.20;;;;;;;5.12;54.02;97869.50;8481403;28;20237;-69
2022/01/07 11:36:44;;;;;;;12.87;10.50;;;;;;;5.04;53.49;97867.13;8480928;28;20532;-69
2022/01/07 11:40:48;;;;;;;12.63;10.87;;;;;;;4.74;54.02;97871.28;8480901;28;20229;-68
2022/01/07 11:44:51;;;;;;;13.37;10.87;;;;;;;4.81;54.00;97865.09;8480826;28;20248;-68
2022/01/07 11:48:55;;;;;;;12.53;10.47;;;;;;;4.87;54.18;97859.84;8480642;28;20225;-68
2022/01/07 11:53:02;;;;;;;13.53;11.07;;;;;;;5.07;54.43;97861.09;8480424;28;20249;-69
2022/01/07 11:57:11;;;;;;;13.17;11.63;;;;;;;4.96;54.72;97858.78;8480722;28;20559;-68
2022/01/07 12:01:23;;;;;;;12.63;11.17;;;;;;;4.87;54.83;97852.16;8480419;28;20225;-69
2022/01/07 12:05:30;;;;;;;13.90;11.47;;;;;;;5.00;54.65;97859.53;8480341;28;20233;-68
2022/01/07 12:09:36;;;;;;;12.07;10.77;;;;;;;5.29;54.48;97851.13;8446232;28;20361;-68
2022/01/07 12:13:41;;;;;;;16.03;12.07;;;;;;;5.24;56.09;97850.41;8446471;28;20245;-69
2022/01/07 12:17:44;;;;;;;13.60;11.97;;;;;;;5.08;54.94;97852.50;8446518;28;20230;-69
2022/01/07 12:21:49;;;;;;;13.80;12.33;;;;;;;4.74;56.05;97849.88;8446759;28;20230;-69
2022/01/07 12:25:54;;;;;;;14.70;12.87;;;;;;;5.22;56.38;97841.91;8446414;28;20232;-69
2022/01/07 12:30:00;;;;;;;14.73;12.37;;;;;;;4.79;58.11;97845.50;8446595;28;20234;-69
2022/01/07 12:34:03;;;;;;;16.37;13.67;;;;;;;4.98;58.58;97840.78;8446420;28;20240;-69
2022/01/07 12:38:16;;;;;;;17.23;15.17;;;;;;;5.13;58.04;97842.97;8446423;28;20269;-68
2022/01/07 12:42:27;;;;;;;16.60;14.90;;;;;;;5.22;58.03;97834.22;8446492;28;20237;-68
2022/01/07 12:46:30;;;;;;;17.67;15.77;;;;;;;5.28;58.29;97834.88;8450154;28;20226;-68
2022/01/07 12:50:36;;;;;;;16.37;14.77;;;;;;;5.28;58.07;97824.63;8452299;28;20409;-69
2022/01/07 12:54:39;;;;;;;18.00;14.97;;;;;;;4.99;59.30;97827.03;8452330;28;20234;-68
2022/01/07 12:58:43;;;;;;;16.53;14.73;;;;;;;5.28;59.15;97814.34;8452125;28;20293;-69
2022/01/07 13:02:49;;;;;;;15.93;14.23;;;;;;;5.22;59.17;97806.81;8452086;28;20238;-68
2022/01/07 13:06:53;;;;;;;16.50;14.50;;;;;;;5.26;58.74;97799.88;8452403;28;20241;-68
2022/01/07 13:10:59;;;;;;;16.43;14.73;;;;;;;5.25;59.44;97793.03;8457606;28;20229;-69
2022/01/07 13:15:05;;;;;;;16.33;14.60;;;;;;;5.41;59.09;97788.38;8467470;28;20237;-68
2022/01/07 13:19:09;;;;;;;16.60;14.90;;;;;;;4.85;60.07;97779.47;8467265;28;20222;-68
2022/01/07 13:23:13;;;;;;;15.50;14.00;;;;;;;4.97;60.35;97772.34;8481835;28;20229;-68
2022/01/07 13:27:16;;;;;;;16.50;14.90;;;;;;;4.67;61.43;97778.19;8484695;28;20229;-69
2022/01/07 13:31:32;;;;;;;16.23;14.33;;;;;;;5.00;60.41;97773.13;8484697;28;20229;-68
2022/01/07 13:35:36;;;;;;;17.00;14.07;;;;;;;4.95;60.48;97774.13;8484272;28;20292;-69
2022/01/07 13:39:40;;;;;;;14.83;12.87;;;;;;;4.88;60.48;97771.69;8484633;28;20229;-69
2022/01/07 13:43:46;;;;;;;15.90;14.30;;;;;;;4.71;60.88;97768.72;8484440;28;20239;-69
2022/01/07 13:47:51;;;;;;;17.77;14.47;;;;;;;4.44;61.66;97771.03;8471567;28;20222;-69
2022/01/07 13:51:57;;;;;;;15.37;13.77;;;;;;;4.73;60.95;97763.56;8465132;28;20233;-68
2022/01/07 13:56:06;;;;;;;15.33;13.80;;;;;;;4.72;61.09;97760.13;8473490;28;20229;-69
2022/01/07 14:00:14;;;;;;;15.90;14.20;;;;;;;4.78;60.80;97757.44;8472128;28;20646;-69
2022/01/07 14:04:20;;;;;;;15.33;13.73;;;;;;;4.97;60.41;97751.81;8455952;28;20234;-68
2022/01/07 14:08:23;;;;;;;17.90;14.57;;;;;;;4.85;60.11;97745.28;8461598;28;20232;-68
2022/01/07 14:12:27;;;;;;;15.53;13.73;;;;;;;5.06;60.22;97749.03;8474702;28;20225;-69
2022/01/07 14:16:30;;;;;;;14.93;13.40;;;;;;;4.85;60.34;97751.25;8464885;28;20233;-70
2022/01/07 14:20:47;;;;;;;15.37;13.77;;;;;;;5.06;60.56;97752.44;8452928;28;20221;-70
2022/01/07 14:24:51;;;;;;;15.90;14.20;;;;;;;5.49;59.41;97758.16;8479764;28;20241;-69
2022/01/07 14:28:59;;;;;;;15.67;13.40;;;;;;;5.19;60.50;97752.13;8480472;28;20229;-70
2022/01/07 14:33:22;;;;;;;14.80;12.87;;;;;;;5.40;59.87;97750.72;8472375;28;20229;-70
2022/01/07 14:37:29;;;;;;;15.40;13.20;;;;;;;5.30;59.96;97750.13;8472818;28;20229;-70
2022/01/07 14:41:32;;;;;;;14.20;12.77;;;;;;;5.42;59.70;97743.81;8442775;28;20222;-71
2022/01/07 14:45:35;;;;;;;14.27;12.77;;;;;;;4.81;61.45;97736.81;8451574;28;20232;-70
2022/01/07 14:49:38;;;;;;;13.73;12.33;;;;;;;5.07;60.96;97737.88;8448409;28;20492;-70
2022/01/07 14:53:43;;;;;;;15.13;13.53;;;;;;;5.28;60.14;97728.78;8447619;28;20241;-70
2022/01/07 14:57:46;;;;;;;15.30;13.70;;;;;;;5.02;60.71;97734.59;8448112;28;20244;-70
2022/01/07 15:01:49;;;;;;;13.93;12.43;;;;;;;5.20;59.98;97731.56;8448329;28;20554;-70
2022/01/07 15:05:52;;;;;;;14.43;12.90;;;;;;;5.20;60.19;97728.16;8448212;28;20234;-70
2022/01/07 15:09:57;;;;;;;13.27;11.97;;;;;;;4.94;60.13;97733.94;8447194;28;21267;-72
2022/01/07 15:14:00;;;;;;;13.43;11.53;;;;;;;4.92;60.88;97738.28;8444911;28;20237;-70
2022/01/07 15:18:05;;;;;;;14.07;12.57;;;;;;;5.15;59.95;97735.94;8448070;28;20229;-70
2022/01/07 15:22:09;;;;;;;16.07;12.17;;;;;;;5.23;59.95;97739.16;8447891;28;20229;-70
2022/01/07 15:26:13;;;;;;;14.20;12.70;;;;;;;5.07;60.11;97749.00;8447810;28;20245;-70
2022/01/07 15:30:16;;;;;;;12.83;11.53;;;;;;;5.40;59.55;97748.97;8447342;28;20402;-70
2022/01/07 15:34:19;;;;;;;15.57;12.03;;;;;;;5.35;59.83;97748.28;8447596;28;20234;-70
2022/01/07 15:38:22;;;;;;;14.67;12.33;;;;;;;5.45;59.34;97748.88;8447352;28;20226;-70
2022/01/07 15:42:27;;;;;;;14.37;12.87;;;;;;;5.07;60.05;97751.56;8447229;28;20252;-69
2022/01/07 15:46:30;;;;;;;15.87;13.07;;;;;;;5.47;59.81;97752.22;8447369;28;20225;-69
2022/01/07 15:50:33;;;;;;;14.73;12.70;;;;;;;5.47;59.94;97747.09;8446810;28;20222;-70
2022/01/07 15:54:37;;;;;;;13.87;12.13;;;;;;;5.45;60.09;97749.69;8447268;28;20241;-69
2022/01/07 15:58:41;;;;;;;14.33;12.60;;;;;;;5.45;60.44;97746.31;8444437;28;20234;-70
2022/01/07 16:02:45;;;;;;;18.60;14.53;;;;;;;5.35;60.29;97747.41;8448352;28;20225;-70
2022/01/07 16:06:48;;;;;;;20.97;15.43;;;;;;;5.19;60.67;97741.84;8451559;28;20242;-69
2022/01/07 16:10:52;;;;;;;14.47;12.97;;;;;;;5.08;61.34;97737.84;8432562;28;20399;-69
2022/01/07 16:14:57;;;;;;;17.93;13.80;;;;;;;5.19;61.18;97734.16;8442292;28;20234;-69
2022/01/07 16:19:00;;;;;;;16.80;14.20;;;;;;;4.75;61.88;97733.56;8446305;28;20226;-69
2022/01/07 16:23:11;;;;;;;15.97;13.93;;;;;;;4.77;62.17;97729.25;8453013;28;20257;-69
2022/01/07 16:27:14;;;;;;;15.10;13.50;;;;;;;4.99;61.85;97734.66;8452982;28;20230;-70
2022/01/07 16:31:18;;;;;;;17.07;13.00;;;;;;;5.22;61.51;97739.22;8452621;28;20234;-69
2022/01/07 16:35:21;;;;;;;14.20;12.80;;;;;;;5.37;60.45;97738.81;8452858;28;20659;-70
2022/01/07 16:39:24;;;;;;;14.37;12.87;;;;;;;5.46;60.70;97742.81;8452664;28;20226;-69
2022/01/07 16:43:28;;;;;;;14.93;13.33;;;;;;;5.52;60.28;97734.97;8452592;28;20412;-69
2022/01/07 16:47:33;;;;;;;16.80;13.93;;;;;;;5.39;60.62;97739.59;8452005;28;20243;-70
2022/01/07 16:51:36;;;;;;;16.10;13.50;;;;;;;5.51;60.32;97745.28;8452368;28;20234;-69
2022/01/07 16:55:40;;;;;;;17.17;13.70;;;;;;;5.56;60.21;97740.84;8451816;28;20234;-70
2022/01/07 16:59:43;;;;;;;17.83;14.30;;;;;;;5.53;60.47;97741.78;8452058;28;20229;-69
2022/01/07 17:03:47;;;;;;;15.80;14.00;;;;;;;5.52;60.12;97727.28;8451620;28;20242;-69
2022/01/07 17:07:51;;;;;;;14.93;13.37;;;;;;;5.40;60.71;97733.56;8452134;28;23281;-69
2022/01/07 17:11:54;;;;;;;14.33;12.70;;;;;;;5.39;60.61;97726.75;8451529;28;20226;-69
2022/01/07 17:15:57;;;;;;;16.07;14.23;;;;;;;5.47;60.67;97722.25;8451500;28;20238;-69
2022/01/07 17:20:02;;;;;;;19.67;14.77;;;;;;;5.55;60.38;97716.06;8451512;28;20232;-69
2022/01/07 17:24:05;;;;;;;21.33;15.47;;;;;;;5.40;59.88;97710.44;8451382;28;20229;-69
2022/01/07 17:28:08;;;;;;;20.87;15.37;;;;;;;5.12;60.76;97715.50;8451408;28;20226;-69
2022/01/07 17:32:12;;;;;;;17.87;14.20;;;;;;;5.38;60.25;97709.66;8450169;28;20551;-69
2022/01/07 17:36:17;;;;;;;16.47;14.10;;;;;;;5.46;60.01;97710.31;8450797;28;20289;-69
2022/01/07 17:40:20;;;;;;;18.83;15.10;;;;;;;5.56;59.64;97715.16;8450655;28;20230;-69
2022/01/07 17:44:43;;;;;;;21.77;16.33;;;;;;;5.57;59.89;97712.56;8450275;28;20332;-69
2022/01/07 17:48:46;;;;;;;19.63;15.50;;;;;;;5.46;59.90;97725.72;8450649;28;20230;-69
2022/01/07 17:52:50;;;;;;;16.30;14.00;;;;;;;5.41;60.14;97727.56;8448879;28;20229;-68
2022/01/07 17:56:53;;;;;;;17.27;13.50;;;;;;;5.63;59.53;97712.38;8431168;28;20246;-68
2022/01/07 18:00:58;;;;;;;17.80;15.90;;;;;;;5.19;60.15;97701.59;8424142;28;20419;-68
2022/01/07 18:05:05;;;;;;;16.83;15.13;;;;;;;5.15;61.01;97702.59;8431786;28;20234;-69
2022/01/07 18:09:12;;;;;;;19.17;17.17;;;;;;;5.08;60.69;97704.47;8449877;28;20229;-69
2022/01/07 18:13:16;;;;;;;20.80;17.17;;;;;;;4.71;62.02;97696.88;8442361;28;20437;-68
2022/01/07 18:17:41;;;;;;;19.63;16.43;;;;;;;4.49;62.76;97694.00;8482850;28;20233;-69
2022/01/07 18:21:49;;;;;;;17.73;15.87;;;;;;;4.90;61.28;97692.97;8483241;28;20425;-69
2022/01/07 18:26:00;;;;;;;17.03;15.33;;;;;;;5.02;60.84;97689.22;8483193;28;20229;-69
2022/01/07 18:30:09;;;;;;;18.43;16.53;;;;;;;5.31;60.36;97689.31;8482712;28;20292;-68
2022/01/07 18:34:13;;;;;;;16.90;15.20;;;;;;;5.19;59.88;97693.91;8482697;28;20237;-67
2022/01/07 18:38:19;;;;;;;16.40;14.70;;;;;;;5.37;59.88;97694.28;8481039;28;20253;-67
2022/01/07 18:42:26;;;;;;;17.07;15.27;;;;;;;5.55;59.48;97690.38;8458225;28;20230;-67
2022/01/07 18:46:32;;;;;;;17.30;15.53;;;;;;;5.52;59.55;97706.72;8448806;28;20253;-67
2022/01/07 18:50:38;;;;;;;16.20;14.50;;;;;;;5.55;59.52;97705.78;8442491;28;20240;-67
2022/01/07 18:54:44;;;;;;;15.20;13.57;;;;;;;5.57;58.84;97704.84;8448414;28;20302;-68
2022/01/07 18:58:51;;;;;;;14.30;12.33;;;;;;;5.70;59.03;97712.22;8448749;28;20296;-68
2022/01/07 19:03:04;;;;;;;15.17;13.13;;;;;;;5.61;58.69;97708.19;8448733;28;20226;-68
2022/01/07 19:07:12;;;;;;;16.03;13.03;;;;;;;5.63;58.91;97701.25;8447704;28;20433;-68
2022/01/07 19:11:20;;;;;;;15.70;13.17;;;;;;;5.62;58.89;97704.72;8448402;28;20398;-68